Time;durP1;ratioP1;P1;durP2;ratioP2;P2;SDS_P1;SDS_P2;PMS_P1;PMS_P2;Temp;Humidity;BMP_temperature;BMP_pressure;BME280_temperature;BME280_humidity;BME280_pressure;Samples;Min_cycle;Max_cycle;Signal;HPM_P1;HPM_P2
2024/02/15 00:02:21;;;;;;;36.60;18.63;;;77.50;2227.20;;;;;;4839582;29;20029;-72
2024/02/15 00:04:46;;;;;;;33.63;15.88;;;77.50;2227.20;;;;;;4839407;29;20385;-74
2024/02/15 00:07:12;;;;;;;36.10;21.30;;;77.50;2227.20;;;;;;4839339;29;20057;-76
2024/02/15 00:09:38;;;;;;;28.67;15.38;;;77.50;2227.20;;;;;;4839168;29;20034;-73
2024/02/15 00:12:04;;;;;;;18.48;11.65;;;77.50;2227.20;;;;;;4838956;29;20037;-76
2024/02/15 00:14:31;;;;;;;20.80;12.70;;;77.40;2227.20;;;;;;4838575;29;20086;-79
2024/02/15 00:16:57;;;;;;;41.72;21.45;;;77.30;2227.20;;;;;;4838865;29;20098;-72
2024/02/15 00:19:23;;;;;;;47.75;23.83;;;77.30;2227.20;;;;;;4839028;29;20102;-78
2024/02/15 00:21:49;;;;;;;18.17;10.43;;;77.30;2227.20;;;;;;4839346;29;20117;-72
2024/02/15 00:24:15;;;;;;;14.13;8.65;;;77.30;2227.20;;;;;;4839105;29;20041;-72
2024/02/15 00:26:44;;;;;;;16.15;8.60;;;77.40;2227.20;;;;;;4839258;29;20038;-84
2024/02/15 00:29:10;;;;;;;18.88;9.65;;;77.40;2227.20;;;;;;4839191;29;20034;-81
2024/02/15 00:31:35;;;;;;;30.38;15.48;;;77.30;2227.20;;;;;;4826810;29;20101;-73
2024/02/15 00:34:04;;;;;;;15.80;9.82;;;77.40;2227.20;;;;;;4838980;29;20480;-75
2024/02/15 00:36:30;;;;;;;16.23;10.65;;;77.50;2227.20;;;;;;4839214;29;20029;-75
2024/02/15 00:38:56;;;;;;;15.80;10.38;;;77.50;2227.20;;;;;;4838605;29;20038;-81
2024/02/15 00:41:22;;;;;;;14.38;9.45;;;77.50;2227.20;;;;;;4839066;29;20018;-78
2024/02/15 00:43:48;;;;;;;14.45;8.82;;;77.50;2227.20;;;;;;4838770;29;20026;-80
2024/02/15 00:46:14;;;;;;;30.52;16.80;;;77.60;2227.20;;;;;;4838864;29;20026;-71
2024/02/15 00:48:40;;;;;;;12.38;7.63;;;77.70;2227.20;;;;;;4837867;29;20101;-82
2024/02/15 00:51:06;;;;;;;20.08;10.13;;;102.40;2227.20;;;;;;4837379;29;20072;-74
2024/02/15 00:53:33;;;;;;;14.30;8.57;;;102.40;2227.20;;;;;;4838218;29;20519;-79
2024/02/15 00:55:59;;;;;;;16.95;9.43;;;102.50;2227.20;;;;;;4837938;29;20509;-74
2024/02/15 00:58:26;;;;;;;17.90;9.93;;;102.40;2227.20;;;;;;4838533;29;20065;-73
2024/02/15 01:00:53;;;;;;;16.50;11.13;;;77.70;2227.20;;;;;;4838132;29;20053;-78
2024/02/15 01:03:19;;;;;;;18.20;11.55;;;77.60;2227.20;;;;;;4838517;29;20028;-72
2024/02/15 01:05:46;;;;;;;27.67;18.92;;;77.50;2227.20;;;;;;4838462;29;20387;-76
2024/02/15 01:08:11;;;;;;;15.82;10.85;;;77.50;2227.20;;;;;;4838648;29;20036;-75
2024/02/15 01:10:37;;;;;;;17.35;10.50;;;77.60;2227.20;;;;;;4838146;29;20120;-78
2024/02/15 01:13:03;;;;;;;16.65;10.23;;;77.60;2227.20;;;;;;4838675;29;20097;-69
2024/02/15 01:15:29;;;;;;;15.07;9.45;;;77.50;2227.20;;;;;;4838039;29;20462;-68
2024/02/15 01:17:55;;;;;;;16.13;9.23;;;77.50;2227.20;;;;;;4838022;29;20026;-74
2024/02/15 01:20:21;;;;;;;15.10;9.45;;;77.70;2227.20;;;;;;4838392;29;20098;-75
2024/02/15 01:22:47;;;;;;;15.48;9.68;;;102.50;2227.20;;;;;;4837194;29;20116;-73
2024/02/15 01:25:15;;;;;;;17.60;10.07;;;102.60;2227.20;;;;;;4837933;29;20121;-70
2024/02/15 01:27:41;;;;;;;15.10;8.00;;;102.50;2227.20;;;;;;4838314;29;20109;-82
2024/02/15 01:30:08;;;;;;;14.73;8.45;;;102.40;2227.20;;;;;;4838125;29;20097;-78
2024/02/15 01:32:34;;;;;;;14.55;9.18;;;77.70;2227.20;;;;;;4838136;29;20496;-79
2024/02/15 01:35:00;;;;;;;14.35;8.70;;;77.70;2227.20;;;;;;4838316;29;20022;-75
2024/02/15 01:37:25;;;;;;;18.88;9.13;;;77.60;2227.20;;;;;;4837995;29;20029;-71
2024/02/15 01:39:52;;;;;;;18.90;11.02;;;77.60;2227.20;;;;;;4838102;29;20120;-77
2024/02/15 01:42:18;;;;;;;18.30;11.15;;;77.60;2227.20;;;;;;4837755;29;20561;-74
2024/02/15 01:44:44;;;;;;;15.38;10.32;;;77.60;2227.20;;;;;;4837778;29;20030;-70
2024/02/15 01:47:11;;;;;;;15.70;9.90;;;77.60;2227.20;;;;;;4838064;29;20381;-78
2024/02/15 01:49:37;;;;;;;14.57;8.73;;;77.40;2227.20;;;;;;4837404;29;20129;-74
2024/02/15 01:52:08;;;;;;;13.80;8.60;;;77.40;2227.20;;;;;;4838103;29;20132;-70
2024/02/15 01:54:35;;;;;;;15.60;7.82;;;77.40;2227.20;;;;;;4838294;29;20133;-70
2024/02/15 01:57:02;;;;;;;15.20;7.72;;;77.40;2227.20;;;;;;4845949;29;20091;-70
2024/02/15 01:59:29;;;;;;;9.73;6.82;;;77.50;2227.20;;;;;;4845044;29;20030;-70
2024/02/15 02:01:55;;;;;;;13.50;8.48;;;77.50;2227.20;;;;;;4830184;29;20042;-76
2024/02/15 02:04:33;;;;;;;12.95;8.20;;;77.40;2227.20;;;;;;4834114;29;20041;-83
2024/02/15 02:07:00;;;;;;;16.45;7.60;;;77.40;2227.20;;;;;;4840088;29;20030;-81
2024/02/15 02:09:26;;;;;;;14.45;9.07;;;77.30;2227.20;;;;;;4838158;29;20030;-81
2024/02/15 02:11:52;;;;;;;22.90;13.52;;;77.30;2227.20;;;;;;4826524;29;20037;-77
2024/02/15 02:14:20;;;;;;;17.50;9.55;;;77.30;2227.20;;;;;;4838408;29;20109;-71
2024/02/15 02:16:46;;;;;;;19.63;12.65;;;77.20;2227.20;;;;;;4837559;29;20066;-71
2024/02/15 02:19:12;;;;;;;13.98;8.93;;;77.30;2227.20;;;;;;4838030;29;20037;-71
2024/02/15 02:21:40;;;;;;;14.48;8.43;;;77.30;2227.20;;;;;;4837263;29;20030;-75
2024/02/15 02:24:21;;;;;;;17.88;9.32;;;77.30;2227.20;;;;;;4849318;29;20046;-73
2024/02/15 02:26:47;;;;;;;18.02;9.13;;;77.30;2227.20;;;;;;4826618;29;20042;-79
2024/02/15 02:29:13;;;;;;;17.30;11.18;;;77.30;2227.20;;;;;;4837686;29;20038;-71
2024/02/15 02:31:40;;;;;;;15.70;9.27;;;77.40;2227.20;;;;;;4837568;29;20440;-82
2024/02/15 02:34:07;;;;;;;14.68;8.98;;;77.20;2227.20;;;;;;4836999;29;20041;-78
2024/02/15 02:36:33;;;;;;;12.95;8.50;;;77.20;2227.20;;;;;;4837570;29;20030;-71
2024/02/15 02:39:00;;;;;;;14.38;9.70;;;77.20;2227.20;;;;;;4839974;29;20034;-74
2024/02/15 02:41:28;;;;;;;20.73;12.52;;;77.30;2227.20;;;;;;4840880;29;20061;-79
2024/02/15 02:43:57;;;;;;;14.68;9.23;;;77.40;2227.20;;;;;;4840933;29;20066;-72
2024/02/15 02:46:23;;;;;;;13.95;8.90;;;77.50;2227.20;;;;;;4840804;29;20247;-75
2024/02/15 02:48:48;;;;;;;34.97;21.80;;;77.60;2227.20;;;;;;4824237;29;20045;-73
2024/02/15 02:51:16;;;;;;;30.55;17.15;;;77.40;2227.20;;;;;;4840453;29;20034;-73
2024/02/15 02:53:41;;;;;;;95.72;50.03;;;77.40;2227.20;;;;;;4840362;29;20061;-73
2024/02/15 02:56:09;;;;;;;69.82;39.67;;;77.50;2227.20;;;;;;4840601;29;20030;-73
2024/02/15 02:58:35;;;;;;;22.15;12.13;;;77.60;2227.20;;;;;;4840476;29;20037;-78
2024/02/15 03:01:01;;;;;;;14.75;9.13;;;77.60;2227.20;;;;;;4840921;29;20034;-75
2024/02/15 03:03:27;;;;;;;15.30;8.15;;;77.50;2227.20;;;;;;4840056;29;20390;-81
2024/02/15 03:05:54;;;;;;;14.50;9.65;;;77.40;2227.20;;;;;;4840872;29;20044;-77
2024/02/15 03:08:20;;;;;;;21.38;13.77;;;77.30;2227.20;;;;;;4824176;29;20026;-71
2024/02/15 03:10:46;;;;;;;19.73;11.02;;;77.20;2227.20;;;;;;4841018;29;20033;-76
2024/02/15 03:13:12;;;;;;;15.68;9.10;;;77.30;2227.20;;;;;;4840923;29;20092;-76
2024/02/15 03:15:38;;;;;;;15.50;8.73;;;77.30;2227.20;;;;;;4840771;29;20497;-70
2024/02/15 03:18:06;;;;;;;14.95;8.48;;;77.20;2227.20;;;;;;4840435;29;20037;-77
2024/02/15 03:20:37;;;;;;;13.00;8.07;;;77.10;2227.20;;;;;;4840440;29;20025;-78
2024/02/15 03:23:03;;;;;;;13.38;7.97;;;76.90;2227.20;;;;;;4840097;29;20060;-77
2024/02/15 03:25:30;;;;;;;13.98;7.70;;;76.90;2227.20;;;;;;4840058;29;20030;-72
2024/02/15 03:27:57;;;;;;;12.82;7.47;;;76.90;2227.20;;;;;;4839888;29;20014;-70
2024/02/15 03:30:25;;;;;;;15.07;8.30;;;77.00;2227.20;;;;;;4840375;29;20485;-72
2024/02/15 03:32:53;;;;;;;12.00;8.48;;;77.00;2227.20;;;;;;4839851;29;20690;-76
2024/02/15 03:35:26;;;;;;;10.90;8.13;;;77.00;2227.20;;;;;;4840060;29;20022;-79
2024/02/15 03:37:52;;;;;;;13.13;8.73;;;77.00;2227.20;;;;;;4840127;29;20033;-72
2024/02/15 03:40:20;;;;;;;14.27;8.63;;;77.00;2227.20;;;;;;4840161;29;20500;-73
2024/02/15 03:42:46;;;;;;;14.68;8.32;;;77.00;2227.20;;;;;;4839817;29;20477;-83
2024/02/15 03:45:12;;;;;;;20.80;11.07;;;77.00;2227.20;;;;;;4840143;29;20026;-72
2024/02/15 03:47:38;;;;;;;21.98;13.13;;;76.90;2227.20;;;;;;4839618;29;20042;-74
2024/02/15 03:50:11;;;;;;;31.58;16.38;;;77.10;2227.20;;;;;;4839805;29;20030;-79
2024/02/15 03:52:38;;;;;;;;;;;77.00;2227.20;;;;;;4839981;29;20069;-75
2024/02/15 03:55:05;;;;;;;29.40;18.25;;;77.30;2227.20;;;;;;4839881;29;19929;-75
2024/02/15 03:57:31;;;;;;;24.10;14.43;;;77.00;2227.20;;;;;;4827825;29;20026;-76
2024/02/15 03:59:57;;;;;;;46.03;31.90;;;77.20;2227.20;;;;;;4839687;29;20082;-71
2024/02/15 04:02:26;;;;;;;24.27;14.20;;;77.20;2227.20;;;;;;4839395;29;20030;-71
2024/02/15 04:04:54;;;;;;;23.23;12.88;;;77.10;2227.20;;;;;;4839565;29;20439;-70
2024/02/15 04:07:21;;;;;;;26.90;19.17;;;77.20;2227.20;;;;;;4823209;29;20445;-68
2024/02/15 04:09:47;;;;;;;19.08;10.10;;;77.10;2227.20;;;;;;4839657;29;20033;-75
2024/02/15 04:12:13;;;;;;;14.07;8.23;;;77.00;2227.20;;;;;;4839457;29;20064;-76
2024/02/15 04:14:40;;;;;;;14.77;9.05;;;77.00;2227.20;;;;;;4839464;29;20030;-71
2024/02/15 04:17:06;;;;;;;17.00;9.57;;;76.90;2227.20;;;;;;4839434;29;20102;-76
2024/02/15 04:19:32;;;;;;;19.40;11.23;;;77.00;2227.20;;;;;;4839064;29;20473;-74
2024/02/15 04:22:00;;;;;;;14.75;9.93;;;77.00;2227.20;;;;;;4822393;29;20445;-81
2024/02/15 04:24:29;;;;;;;13.95;9.25;;;77.10;2227.20;;;;;;4825975;29;20065;-73
2024/02/15 04:26:55;;;;;;;32.38;19.67;;;77.10;2227.20;;;;;;4839293;29;20048;-70
2024/02/15 04:29:21;;;;;;;41.45;24.50;;;77.10;2227.20;;;;;;4839320;29;20528;-77
2024/02/15 04:31:50;;;;;;;34.38;18.70;;;77.20;2227.20;;;;;;4847727;29;20056;-74
2024/02/15 04:34:16;;;;;;;21.17;13.15;;;77.20;2227.20;;;;;;4842294;29;20057;-75
2024/02/15 04:36:49;;;;;;;18.90;12.05;;;77.30;2227.20;;;;;;4830479;29;20057;-83
2024/02/15 04:39:23;;;;;;;20.77;11.93;;;77.30;2227.20;;;;;;4836665;29;20032;-83
2024/02/15 04:41:53;;;;;;;19.52;11.55;;;77.30;2227.20;;;;;;4839379;29;20086;-82
2024/02/15 04:44:20;;;;;;;22.40;13.07;;;77.30;2227.20;;;;;;4838921;29;20026;-74
2024/02/15 04:46:47;;;;;;;21.95;13.57;;;77.20;2227.20;;;;;;4838901;29;20037;-77
2024/02/15 04:49:14;;;;;;;22.17;13.52;;;77.30;2227.20;;;;;;4839060;29;20022;-77
2024/02/15 04:51:41;;;;;;;23.45;14.38;;;77.30;2227.20;;;;;;4838876;29;20048;-75
2024/02/15 04:54:08;;;;;;;26.77;16.33;;;77.40;2227.20;;;;;;4838455;29;20042;-76
2024/02/15 04:56:36;;;;;;;23.77;14.25;;;77.50;2227.20;;;;;;4839086;29;20030;-72
2024/02/15 04:59:02;;;;;;;29.20;20.30;;;77.50;2227.20;;;;;;4826737;29;20044;-71
2024/02/15 05:01:29;;;;;;;30.40;18.65;;;77.60;2227.20;;;;;;4838074;29;20026;-71
2024/02/15 05:03:55;;;;;;;28.42;18.95;;;77.60;2227.20;;;;;;4838573;29;20033;-81
2024/02/15 05:06:21;;;;;;;24.45;15.40;;;77.70;2227.20;;;;;;4838761;29;20037;-76
2024/02/15 05:08:47;;;;;;;26.17;14.48;;;77.70;2227.20;;;;;;4838668;29;20048;-76
2024/02/15 05:11:17;;;;;;;19.77;12.20;;;77.60;2227.20;;;;;;4838646;29;20325;-70
2024/02/15 05:13:46;;;;;;;13.05;8.65;;;77.50;2227.20;;;;;;4838517;29;20132;-82
2024/02/15 05:16:14;;;;;;;13.65;7.72;;;77.30;2227.20;;;;;;4838645;29;20102;-73
2024/02/15 05:18:41;;;;;;;16.70;9.20;;;77.20;2227.20;;;;;;4838292;29;20030;-71
2024/02/15 05:21:10;;;;;;;11.20;7.88;;;77.40;2227.20;;;;;;4838056;29;20041;-77
2024/02/15 05:23:37;;;;;;;12.55;7.90;;;77.20;2227.20;;;;;;4844891;29;20057;-73
2024/02/15 05:26:03;;;;;;;21.13;15.02;;;77.10;2227.20;;;;;;4843678;29;20037;-83
2024/02/15 05:28:29;;;;;;;15.98;9.30;;;77.00;2227.20;;;;;;4840202;29;20033;-73
2024/02/15 05:31:20;;;;;;;19.05;12.75;;;77.10;2227.20;;;;;;4846024;29;20033;-71
2024/02/15 05:33:53;;;;;;;18.20;10.65;;;77.00;2227.20;;;;;;4844889;29;20038;-70
2024/02/15 05:36:21;;;;;;;13.70;6.55;;;77.00;2227.20;;;;;;4844100;29;20485;-82
2024/02/15 05:38:48;;;;;;;17.88;9.38;;;76.90;2227.20;;;;;;4837333;29;20042;-82
2024/02/15 05:41:14;;;;;;;16.42;10.23;;;76.90;2227.20;;;;;;4838965;29;20042;-73
2024/02/15 05:43:43;;;;;;;18.85;10.98;;;77.00;2227.20;;;;;;4838655;29;20045;-79
2024/02/15 05:46:10;;;;;;;23.38;13.68;;;77.10;2227.20;;;;;;4827233;29;20043;-78
2024/02/15 05:48:39;;;;;;;16.27;10.07;;;77.40;2227.20;;;;;;4837683;29;20473;-81
2024/02/15 05:51:06;;;;;;;13.48;7.97;;;77.30;2227.20;;;;;;4837385;29;20034;-80
2024/02/15 05:53:38;;;;;;;15.35;9.02;;;77.40;2227.20;;;;;;4837727;29;20060;-80
2024/02/15 05:56:08;;;;;;;17.90;12.02;;;77.60;2227.20;;;;;;4838303;29;20041;-78
2024/02/15 05:58:35;;;;;;;15.73;12.45;;;77.70;2227.20;;;;;;4838574;29;20045;-78
2024/02/15 06:01:02;;;;;;;21.65;11.68;;;77.70;2227.20;;;;;;4838591;29;20030;-80
2024/02/15 06:03:29;;;;;;;21.38;12.23;;;77.70;2227.20;;;;;;4838282;29;20118;-76
2024/02/15 06:05:58;;;;;;;36.63;22.10;;;102.40;2227.20;;;;;;4837942;29;20037;-73
2024/02/15 06:08:27;;;;;;;25.75;15.43;;;102.40;2227.20;;;;;;4829558;29;20692;-78
2024/02/15 06:10:53;;;;;;;23.50;12.55;;;102.50;2227.20;;;;;;4833838;29;20026;-77
2024/02/15 06:13:20;;;;;;;17.77;11.88;;;102.40;2227.20;;;;;;4830636;29;20443;-72
2024/02/15 06:15:47;;;;;;;15.50;10.23;;;102.40;2227.20;;;;;;4826557;29;20035;-78
2024/02/15 06:18:14;;;;;;;20.45;12.70;;;102.50;2227.20;;;;;;4828729;29;20041;-71
2024/02/15 06:20:40;;;;;;;19.73;14.02;;;102.60;2227.20;;;;;;4822843;29;20069;-71
2024/02/15 06:23:07;;;;;;;20.25;15.10;;;102.60;2227.20;;;;;;4838153;29;20061;-80
2024/02/15 06:25:34;;;;;;;20.35;12.90;;;102.50;2227.20;;;;;;4834378;29;20540;-70
2024/02/15 06:28:06;;;;;;;14.73;9.50;;;102.40;2227.20;;;;;;4831220;29;20034;-70
2024/02/15 06:41:33;;;;;;;37.67;18.98;;;103.10;2227.20;;;;;;4831328;29;20098;-79
2024/02/15 06:43:59;;;;;;;31.30;19.63;;;103.10;2227.20;;;;;;4840595;29;20034;-69
2024/02/15 06:46:25;;;;;;;49.17;33.75;;;103.20;2227.20;;;;;;4839651;29;20045;-70
2024/02/15 06:48:51;;;;;;;25.13;15.40;;;103.30;2227.20;;;;;;4840701;29;20100;-76
2024/02/15 06:51:16;;;;;;;17.65;10.73;;;103.30;2227.20;;;;;;4840576;29;20026;-73
2024/02/15 06:53:42;;;;;;;16.98;12.63;;;103.20;2227.20;;;;;;4840714;29;20630;-75
2024/02/15 06:56:11;;;;;;;17.13;11.43;;;103.10;2227.20;;;;;;4835705;29;20034;-73
2024/02/15 06:58:37;;;;;;;22.60;11.13;;;103.20;2227.20;;;;;;4840897;29;20018;-74
2024/02/15 07:01:03;;;;;;;14.60;9.85;;;103.30;2227.20;;;;;;4840407;29;20059;-72
2024/02/15 07:03:29;;;;;;;30.30;16.23;;;128.10;2252.80;;;;;;4840568;29;20044;-78
2024/02/15 07:05:56;;;;;;;43.33;25.80;;;128.10;2252.80;;;;;;4840400;29;20441;-73
2024/02/15 07:08:24;;;;;;;38.53;30.33;;;128.40;2252.80;;;;;;4830745;29;20113;-79
2024/02/15 07:10:51;;;;;;;28.55;18.90;;;128.60;2252.80;;;;;;4831340;29;20036;-73
2024/02/15 07:13:17;;;;;;;44.28;25.85;;;128.70;2252.80;;;;;;4840715;29;20418;-72
2024/02/15 07:15:44;;;;;;;161.13;98.60;;;153.60;2252.80;;;;;;4849471;29;20033;-76
2024/02/15 07:18:16;;;;;;;157.75;97.55;;;153.60;2252.80;;;;;;4843588;29;20038;-74
2024/02/15 07:20:41;;;;;;;167.50;104.63;;;153.90;2252.80;;;;;;4840530;29;20037;-73
2024/02/15 07:23:07;;;;;;;167.68;108.30;;;154.00;2252.80;;;;;;4839620;29;20034;-75
2024/02/15 07:25:34;;;;;;;153.40;98.32;;;154.10;2252.80;;;;;;4840353;29;20041;-73
2024/02/15 07:27:59;;;;;;;152.55;99.97;;;154.00;2252.80;;;;;;4840135;29;20085;-73
2024/02/15 07:30:25;;;;;;;128.23;92.55;;;153.90;2252.80;;;;;;4840220;29;20049;-72
2024/02/15 07:32:51;;;;;;;131.13;93.35;;;153.80;2252.80;;;;;;4833828;29;20389;-76
2024/02/15 07:35:17;;;;;;;131.65;91.75;;;153.80;2252.80;;;;;;4840281;29;20041;-71
2024/02/15 07:37:57;;;;;;;107.30;73.32;;;154.20;2252.80;;;;;;4839863;29;20049;-71
2024/02/15 07:40:27;;;;;;;82.07;56.78;;;154.20;2252.80;;;;;;4839783;29;20437;-72
2024/02/15 07:42:54;;;;;;;83.30;59.00;;;154.10;2252.80;;;;;;4834197;29;20022;-70
2024/02/15 07:45:20;;;;;;;39.67;27.73;;;154.30;2252.80;;;;;;4839437;29;20034;-71
2024/02/15 07:47:46;;;;;;;31.50;24.67;;;179.40;2252.80;;;;;;4839746;29;20109;-78
2024/02/15 07:50:22;;;;;;;44.20;29.92;;;230.60;2252.80;;;;;;4839894;29;20393;-71
2024/02/15 07:52:49;;;;;;;114.95;83.43;;;281.80;2278.40;;;;;;4839447;29;20101;-71
2024/02/15 07:55:15;;;;;;;55.47;42.55;;;307.60;2304.00;;;;;;4839550;29;20064;-73
2024/02/15 07:57:41;;;;;;;69.05;53.08;;;358.50;2252.80;;;;;;4839784;29;20116;-71
2024/02/15 08:00:11;;;;;;;55.83;43.75;;;359.10;2124.80;;;;;;4839587;29;20117;-73
2024/02/15 08:02:42;;;;;;;56.38;43.22;;;384.60;2048.00;;;;;;4851478;29;20030;-70
2024/02/15 08:05:12;;;;;;;30.50;23.05;;;410.50;1971.20;;;;;;4839486;29;20074;-72
2024/02/15 08:07:42;;;;;;;28.23;22.50;;;435.40;1894.40;;;;;;4839402;29;20033;-71
2024/02/15 08:10:12;;;;;;;25.08;20.85;;;435.90;1843.20;;;;;;4839495;29;20045;-71
2024/02/15 08:12:40;;;;;;;25.35;21.08;;;461.30;1843.20;;;;;;4839077;29;20457;-74
2024/02/15 08:15:11;;;;;;;81.25;63.83;;;486.50;1792.00;;;;;;4839422;29;20026;-71
2024/02/15 08:17:41;;;;;;;63.47;56.25;;;486.70;1740.80;;;;;;4818783;29;20045;-71
2024/02/15 08:20:14;;;;;;;55.65;49.88;;;461.50;1792.00;;;;;;4839404;29;20049;-73
2024/02/15 08:22:41;;;;;;;46.83;41.83;;;486.70;1740.80;;;;;;4839181;29;20648;-71
2024/02/15 08:25:11;;;;;;;48.63;43.58;;;486.70;1715.20;;;;;;4839021;29;20037;-71
2024/02/15 08:27:42;;;;;;;61.63;55.28;;;486.80;1715.20;;;;;;4838541;29;20037;-75
2024/02/15 08:30:13;;;;;;;59.20;53.03;;;486.90;1715.20;;;;;;4827778;29;20026;-71
2024/02/15 08:32:42;;;;;;;43.88;39.35;;;512.30;1664.00;;;;;;4838834;29;20037;-71
2024/02/15 08:35:09;;;;;;;48.05;43.15;;;512.70;1638.40;;;;;;4838444;29;20603;-72
2024/02/15 08:37:37;;;;;;;44.83;40.20;;;512.40;1638.40;;;;;;4833734;29;20042;-75
2024/02/15 08:40:10;;;;;;;39.60;33.80;;;512.40;1638.40;;;;;;4835599;29;20030;-71
2024/02/15 08:42:40;;;;;;;68.78;58.03;;;512.70;1612.80;;;;;;4830311;29;20057;-76
2024/02/15 08:45:10;;;;;;;84.70;75.90;;;512.30;1638.40;;;;;;4838530;29;20113;-72
2024/02/15 08:47:40;;;;;;;72.70;64.95;;;512.30;1638.40;;;;;;4838746;29;20420;-73
2024/02/15 08:50:08;;;;;;;82.18;73.05;;;537.60;1612.80;;;;;;4838477;29;20033;-72
2024/02/15 08:52:37;;;;;;;60.63;54.28;;;512.70;1612.80;;;;;;4838763;29;20085;-75
2024/02/15 08:55:06;;;;;;;28.15;24.85;;;512.80;1587.20;;;;;;4837963;29;20068;-71
2024/02/15 08:57:33;;;;;;;37.60;33.30;;;538.10;1561.60;;;;;;4838342;29;20032;-73
2024/02/15 08:59:59;;;;;;;34.63;30.83;;;537.80;1561.60;;;;;;4838183;29;20061;-72
2024/02/15 09:02:25;;;;;;;35.70;31.90;;;512.90;1561.60;;;;;;4838423;29;20501;-71
2024/02/15 09:04:50;;;;;;;56.10;49.83;;;538.20;1561.60;;;;;;4837898;29;20130;-72
2024/02/15 09:07:16;;;;;;;29.05;26.45;;;538.00;1561.60;;;;;;4838292;29;20041;-71
2024/02/15 09:09:42;;;;;;;21.60;19.27;;;537.80;1536.00;;;;;;4838243;29;20037;-70
2024/02/15 09:12:08;;;;;;;17.65;14.23;;;563.90;1510.40;;;;;;4838420;29;20536;-71
2024/02/15 09:14:34;;;;;;;21.65;19.67;;;589.10;1459.20;;;;;;4837985;29;20466;-71
2024/02/15 09:17:09;;;;;;;90.25;82.03;;;589.60;1408.00;;;;;;4838141;29;20042;-70
2024/02/15 09:19:35;;;;;;;18.67;16.80;;;589.60;1408.00;;;;;;4836825;29;20366;-71
2024/02/15 09:22:06;;;;;;;10.18;9.18;;;589.30;1459.20;;;;;;4838114;29;20037;-70
2024/02/15 09:24:35;;;;;;;10.32;9.07;;;614.60;1382.40;;;;;;4821175;29;20038;-71
2024/02/15 09:27:02;;;;;;;15.57;12.10;;;614.90;1356.80;;;;;;4837986;29;20154;-81
2024/02/15 09:29:32;;;;;;;14.55;13.02;;;614.80;1356.80;;;;;;4837348;29;20033;-80
2024/02/15 09:32:01;;;;;;;27.17;23.50;;;;;;;;;;4831202;29;20038;-82
2024/02/15 09:34:28;;;;;;;28.67;24.23;;;;;;;;;;4833410;29;20061;-83
2024/02/15 09:36:55;;;;;;;11.55;10.20;;;;;;;;;;4837619;29;20030;-83
2024/02/15 09:39:21;;;;;;;11.50;8.32;;;563.70;1433.60;;;;;;4837722;29;20030;-78
2024/02/15 09:41:50;;;;;;;16.58;13.52;;;538.40;1433.60;;;;;;4833829;29;20036;-83
2024/02/15 09:44:16;;;;;;;19.77;15.82;;;512.60;1484.80;;;;;;4837636;29;20109;-71
2024/02/15 09:46:46;;;;;;;11.77;8.07;;;486.90;1561.60;;;;;;4838501;29;20113;-70
2024/02/15 09:49:13;;;;;;;8.38;7.10;;;486.80;1561.60;;;;;;4841698;29;20481;-70
2024/02/15 09:51:42;;;;;;;51.47;40.60;;;461.50;1587.20;;;;;;4841111;29;20037;-70
2024/02/15 09:54:09;;;;;;;10.00;7.18;;;436.10;1612.80;;;;;;4841556;29;20062;-72
2024/02/15 09:56:35;;;;;;;9.73;8.18;;;435.90;1664.00;;;;;;4841665;29;20462;-85
2024/02/15 09:59:02;;;;;;;11.43;10.32;;;410.50;1689.60;;;;;;4821848;29;20050;-84
2024/02/15 10:01:31;;;;;;;10.95;7.43;;;410.50;1715.20;;;;;;4838470;29;20030;-81
2024/02/15 10:04:01;;;;;;;9.93;7.45;;;435.40;1715.20;;;;;;4840733;29;20116;-84
2024/02/15 10:06:27;;;;;;;9.38;6.68;;;435.30;1715.20;;;;;;4824992;29;20034;-84
2024/02/15 10:08:53;;;;;;;9.68;6.80;;;410.50;1715.20;;;;;;4840365;29;20041;-86
2024/02/15 10:11:20;;;;;;;11.15;5.82;;;435.20;1689.60;;;;;;4830129;29;20065;-85
2024/02/15 10:13:47;;;;;;;7.40;4.90;;;435.20;1689.60;;;;;;4849685;29;20050;-83
2024/02/15 10:16:18;;;;;;;8.45;6.38;;;435.30;1689.60;;;;;;4837616;29;20022;-84
2024/02/15 10:18:45;;;;;;;9.63;4.70;;;435.30;1689.60;;;;;;4820751;29;20046;-73
2024/02/15 10:21:29;;;;;;;28.83;11.48;;;435.60;1664.00;;;;;;4835337;29;20128;-71
2024/02/15 10:24:08;;;;;;;9.43;5.35;;;435.50;1715.20;;;;;;4832096;29;20061;-72
2024/02/15 10:26:35;;;;;;;9.57;6.05;;;435.30;1689.60;;;;;;4833255;29;20091;-76
2024/02/15 10:29:12;;;;;;;8.73;5.13;;;410.50;1715.20;;;;;;4824464;29;20113;-78
2024/02/15 10:31:52;;;;;;;12.13;7.45;;;410.50;1715.20;;;;;;4825703;29;20034;-75
2024/02/15 10:34:22;;;;;;;11.25;6.65;;;435.20;1689.60;;;;;;4829954;29;20072;-74
2024/02/15 10:36:48;;;;;;;9.18;5.90;;;435.20;1689.60;;;;;;4839108;29;20040;-79
2024/02/15 10:39:19;;;;;;;25.70;18.05;;;435.50;1664.00;;;;;;4840675;29;20557;-72
2024/02/15 10:41:53;;;;;;;10.07;7.15;;;435.60;1664.00;;;;;;4827688;29;20026;-72
2024/02/15 10:44:25;;;;;;;19.73;13.50;;;435.60;1664.00;;;;;;4833722;29;20121;-72
2024/02/15 10:46:54;;;;;;;9.75;6.63;;;435.70;1664.00;;;;;;4823840;29;20056;-72
2024/02/15 10:49:25;;;;;;;12.50;8.63;;;435.40;1689.60;;;;;;4832513;29;20056;-74
2024/02/15 10:51:58;;;;;;;15.10;10.80;;;435.60;1689.60;;;;;;4821487;29;20087;-72
2024/02/15 10:54:31;;;;;;;14.73;12.23;;;435.40;1715.20;;;;;;4831878;29;20046;-72
2024/02/15 10:57:03;;;;;;;11.65;6.40;;;435.30;1715.20;;;;;;4836704;29;20042;-72
2024/02/15 10:59:34;;;;;;;15.87;12.00;;;435.20;1715.20;;;;;;4836720;29;20698;-72
2024/02/15 11:02:04;;;;;;;23.55;21.15;;;410.00;1740.80;;;;;;4840280;29;20026;-72
2024/02/15 11:04:34;;;;;;;9.55;7.05;;;410.30;1715.20;;;;;;4839677;29;20026;-70
2024/02/15 11:07:03;;;;;;;24.35;21.83;;;410.00;1715.20;;;;;;4823960;29;20542;-72
2024/02/15 11:09:31;;;;;;;21.35;19.15;;;410.30;1715.20;;;;;;4839635;29;20037;-73
2024/02/15 11:11:57;;;;;;;14.98;11.40;;;410.20;1715.20;;;;;;4834379;29;20030;-79
2024/02/15 11:14:29;;;;;;;14.70;9.10;;;384.70;1740.80;;;;;;4833148;29;20366;-74
2024/02/15 11:17:00;;;;;;;9.38;7.57;;;409.80;1766.40;;;;;;4833230;29;20485;-78
2024/02/15 11:19:34;;;;;;;24.90;19.92;;;410.20;1740.80;;;;;;4839878;29;20034;-79
2024/02/15 11:22:03;;;;;;;21.08;15.43;;;410.50;1715.20;;;;;;4840252;29;20105;-79
2024/02/15 11:24:36;;;;;;;12.13;9.27;;;410.30;1715.20;;;;;;4842449;29;20102;-79
2024/02/15 11:27:03;;;;;;;10.85;6.45;;;435.20;1715.20;;;;;;4849833;29;20022;-79
2024/02/15 11:32:49;;;;;;;6.05;4.32;;;384.90;1740.80;;;;;;4840072;29;20571;-78
2024/02/15 11:35:17;;;;;;;11.70;7.43;;;384.90;1740.80;;;;;;4839867;29;20062;-77
2024/02/15 11:40:28;;;;;;;52.55;47.03;;;409.80;1766.40;;;;;;4840129;29;20372;-80
2024/02/15 11:43:04;;;;;;;25.38;14.65;;;410.30;1715.20;;;;;;4836644;29;20026;-79
2024/02/15 11:45:37;;;;;;;26.90;22.63;;;409.90;1740.80;;;;;;4832455;29;20026;-81
2024/02/15 11:48:07;;;;;;;28.20;25.23;;;409.90;1766.40;;;;;;4828185;29;20060;-80
2024/02/15 11:50:36;;;;;;;7.57;5.70;;;410.00;1740.80;;;;;;4840068;29;20042;-79
2024/02/15 11:53:05;;;;;;;15.73;11.82;;;410.10;1740.80;;;;;;4839329;29;20038;-77
2024/02/15 11:55:32;;;;;;;21.88;15.77;;;410.20;1740.80;;;;;;4839992;29;20040;-80
2024/02/15 11:58:16;;;;;;;8.73;5.55;;;410.20;1740.80;;;;;;4839701;29;20053;-75
2024/02/15 12:20:01;;;;;;;34.45;20.80;;;384.20;1817.60;;;;;;4839579;29;20036;-73
2024/02/15 12:22:31;;;;;;;26.92;16.50;;;384.00;1817.60;;;;;;4839014;29;20030;-72
2024/02/15 12:25:00;;;;;;;22.63;7.07;;;384.50;1792.00;;;;;;4838896;29;20430;-73
2024/02/15 12:27:30;;;;;;;10.77;6.63;;;384.40;1792.00;;;;;;4839005;29;20056;-72
2024/02/15 12:29:59;;;;;;;102.47;64.15;;;384.10;1792.00;;;;;;4839095;29;20018;-74
2024/02/15 12:32:27;;;;;;;470.27;331.30;;;384.40;1792.00;;;;;;4837920;29;20438;-73
2024/02/15 12:35:08;;;;;;;25.40;16.13;;;384.30;1817.60;;;;;;4839011;29;20034;-72
2024/02/15 12:37:34;;;;;;;19.23;12.38;;;384.60;1843.20;;;;;;4831532;29;20033;-74
2024/02/15 12:40:13;;;;;;;59.92;39.33;;;384.80;1792.00;;;;;;4831863;29;20030;-72
2024/02/15 12:42:39;;;;;;;91.25;65.40;;;384.70;1817.60;;;;;;4838329;29;20105;-72
2024/02/15 12:45:07;;;;;;;59.83;41.05;;;384.50;1817.60;;;;;;4838439;29;20031;-72
2024/02/15 12:47:33;;;;;;;29.08;21.23;;;384.30;1817.60;;;;;;4829963;29;20030;-73
2024/02/15 12:50:14;;;;;;;75.60;48.95;;;384.20;1817.60;;;;;;4832378;29;20041;-73